sensor_id;sensor_type;location;lat;lon;timestamp;pressure;altitude;pressure_sealevel;temperature;humidity
7018;BME280;3549;42.162;24.726;2023-04-07T00:00:47;47761.25;;;-141.97;44.71
7018;BME280;3549;42.162;24.726;2023-04-07T00:03:13;47655.53;;;-141.97;44.83
7018;BME280;3549;42.162;24.726;2023-04-07T00:05:38;47757.41;;;-141.97;45.45
7018;BME280;3549;42.162;24.726;2023-04-07T00:08:03;47684.38;;;-141.97;45.55
7018;BME280;3549;42.162;24.726;2023-04-07T00:10:29;47815.09;;;-141.97;44.94
7018;BME280;3549;42.162;24.726;2023-04-07T00:12:55;47715.13;;;-141.97;44.54
7018;BME280;3549;42.162;24.726;2023-04-07T00:15:20;47822.78;;;-141.97;45.12
7018;BME280;3549;42.162;24.726;2023-04-07T00:17:45;47649.78;;;-141.97;45.41
7018;BME280;3549;42.162;24.726;2023-04-07T00:20:11;47619.03;;;-141.97;45.60
7018;BME280;3549;42.162;24.726;2023-04-07T00:22:36;47743.97;;;-141.97;45.94
7018;BME280;3549;42.162;24.726;2023-04-07T00:25:02;47792.03;;;-141.97;45.63
7018;BME280;3549;42.162;24.726;2023-04-07T00:27:27;47803.56;;;-141.97;45.42
7018;BME280;3549;42.162;24.726;2023-04-07T00:29:53;47699.75;;;-141.97;46.06
7018;BME280;3549;42.162;24.726;2023-04-07T00:32:20;47768.94;;;-141.97;45.81
7018;BME280;3549;42.162;24.726;2023-04-07T00:34:46;47715.13;;;-141.97;46.13
7018;BME280;3549;42.162;24.726;2023-04-07T00:37:11;47776.63;;;-141.97;45.92
7018;BME280;3549;42.162;24.726;2023-04-07T00:39:37;47661.31;;;-141.97;46.21
7018;BME280;3549;42.162;24.726;2023-04-07T00:42:03;47599.81;;;-141.97;45.97
7018;BME280;3549;42.162;24.726;2023-04-07T00:44:29;47720.91;;;-141.97;45.91
7018;BME280;3549;42.162;24.726;2023-04-07T00:46:55;47738.19;;;-141.97;46.04
7018;BME280;3549;42.162;24.726;2023-04-07T00:49:20;47599.81;;;-141.97;46.52
7018;BME280;3549;42.162;24.726;2023-04-07T00:51:46;47749.72;;;-141.97;46.69
7018;BME280;3549;42.162;24.726;2023-04-07T00:54:11;47761.25;;;-141.97;46.45
7018;BME280;3549;42.162;24.726;2023-04-07T00:56:37;47707.44;;;-141.97;46.82
7018;BME280;3549;42.162;24.726;2023-04-07T00:59:05;47718.97;;;-141.97;46.42
7018;BME280;3549;42.162;24.726;2023-04-07T01:01:59;47749.72;;;-141.97;46.34
7018;BME280;3549;42.162;24.726;2023-04-07T01:05:07;47732.44;;;-141.97;46.36
7018;BME280;3549;42.162;24.726;2023-04-07T01:07:47;47667.06;;;-141.97;46.05
7018;BME280;3549;42.162;24.726;2023-04-07T01:10:19;47784.34;;;-141.97;45.92
7018;BME280;3549;42.162;24.726;2023-04-07T01:15:20;47682.47;;;-141.97;45.77
7018;BME280;3549;42.162;24.726;2023-04-07T01:17:52;47724.75;;;-141.97;45.97
7018;BME280;3549;42.162;24.726;2023-04-07T01:20:21;47782.41;;;-141.97;46.26
7018;BME280;3549;42.162;24.726;2023-04-07T01:22:56;47732.44;;;-141.97;45.99
7018;BME280;3549;42.162;24.726;2023-04-07T01:26:03;47703.59;;;-141.97;46.32
7018;BME280;3549;42.162;24.726;2023-04-07T01:28:45;47734.34;;;-141.97;46.32
7018;BME280;3549;42.162;24.726;2023-04-07T01:31:14;47811.25;;;-141.97;46.47
7018;BME280;3549;42.162;24.726;2023-04-07T01:33:43;47722.81;;;-141.97;46.70
7018;BME280;3549;42.162;24.726;2023-04-07T01:36:10;47707.44;;;-141.97;46.53
7018;BME280;3549;42.162;24.726;2023-04-07T01:38:37;47780.47;;;-141.97;46.28
7018;BME280;3549;42.162;24.726;2023-04-07T01:41:03;47605.56;;;-141.97;46.27
7018;BME280;3549;42.162;24.726;2023-04-07T01:43:30;47615.19;;;-141.97;46.79
7018;BME280;3549;42.162;24.726;2023-04-07T01:45:56;47801.63;;;-141.97;46.84
7018;BME280;3549;42.162;24.726;2023-04-07T01:48:22;47669.00;;;-141.97;46.66
7018;BME280;3549;42.162;24.726;2023-04-07T01:50:49;47628.63;;;-141.97;46.79
7018;BME280;3549;42.162;24.726;2023-04-07T01:53:15;47792.03;;;-141.97;46.91
7018;BME280;3549;42.162;24.726;2023-04-07T01:55:42;47619.03;;;-141.97;46.94
7018;BME280;3549;42.162;24.726;2023-04-07T01:58:08;47584.44;;;-141.97;46.78
7018;BME280;3549;42.162;24.726;2023-04-07T02:00:34;47609.41;;;-141.97;46.84
7018;BME280;3549;42.162;24.726;2023-04-07T02:03:10;47684.38;;;-141.97;46.61
7018;BME280;3549;42.162;24.726;2023-04-07T02:05:44;47709.38;;;-141.97;47.12
7018;BME280;3549;42.162;24.726;2023-04-07T02:08:18;47788.19;;;-141.97;46.79
7018;BME280;3549;42.162;24.726;2023-04-07T02:10:46;47740.13;;;-141.97;46.72
7018;BME280;3549;42.162;24.726;2023-04-07T02:13:15;47711.28;;;-141.97;46.67
7018;BME280;3549;42.162;24.726;2023-04-07T02:15:43;47647.84;;;-141.97;46.52
7018;BME280;3549;42.162;24.726;2023-04-07T02:18:12;47659.38;;;-141.97;46.27
7018;BME280;3549;42.162;24.726;2023-04-07T02:20:40;47736.28;;;-141.97;46.33
7018;BME280;3549;42.162;24.726;2023-04-07T02:23:09;47730.50;;;-141.97;46.76
7018;BME280;3549;42.162;24.726;2023-04-07T02:25:35;47718.97;;;-141.97;46.06
7018;BME280;3549;42.162;24.726;2023-04-07T02:28:04;47661.31;;;-141.97;46.11
7018;BME280;3549;42.162;24.726;2023-04-07T02:30:30;47676.69;;;-141.97;46.59
7018;BME280;3549;42.162;24.726;2023-04-07T02:32:56;47720.91;;;-141.97;46.53
7018;BME280;3549;42.162;24.726;2023-04-07T02:35:21;47690.16;;;-141.97;46.86
7018;BME280;3549;42.162;24.726;2023-04-07T02:37:47;47726.66;;;-141.97;46.63
7018;BME280;3549;42.162;24.726;2023-04-07T02:40:13;47732.44;;;-141.97;46.36
7018;BME280;3549;42.162;24.726;2023-04-07T02:42:38;47674.78;;;-141.97;46.90
7018;BME280;3549;42.162;24.726;2023-04-07T02:45:05;47734.34;;;-141.97;46.82
7018;BME280;3549;42.162;24.726;2023-04-07T02:47:32;47726.66;;;-141.97;46.67
7018;BME280;3549;42.162;24.726;2023-04-07T02:49:57;47734.34;;;-141.97;46.54
7018;BME280;3549;42.162;24.726;2023-04-07T02:52:22;47676.69;;;-141.97;46.14
7018;BME280;3549;42.162;24.726;2023-04-07T02:54:48;47788.19;;;-141.97;45.88
7018;BME280;3549;42.162;24.726;2023-04-07T02:57:13;47815.09;;;-141.97;46.01
7018;BME280;3549;42.162;24.726;2023-04-07T02:59:39;47665.16;;;-141.97;46.04
7018;BME280;3549;42.162;24.726;2023-04-07T03:02:05;47820.84;;;-141.97;45.96
7018;BME280;3549;42.162;24.726;2023-04-07T03:04:31;47757.41;;;-141.97;45.78
7018;BME280;3549;42.162;24.726;2023-04-07T03:06:56;47674.78;;;-141.97;45.90
7018;BME280;3549;42.162;24.726;2023-04-07T03:09:22;47638.25;;;-141.97;46.11
7018;BME280;3549;42.162;24.726;2023-04-07T03:11:48;47726.66;;;-141.97;46.48
7018;BME280;3549;42.162;24.726;2023-04-07T03:14:13;47684.38;;;-141.97;46.60
7018;BME280;3549;42.162;24.726;2023-04-07T03:16:38;47743.97;;;-141.97;46.75
7018;BME280;3549;42.162;24.726;2023-04-07T03:19:04;47743.97;;;-141.97;47.20
7018;BME280;3549;42.162;24.726;2023-04-07T03:21:29;47649.78;;;-141.97;47.40
7018;BME280;3549;42.162;24.726;2023-04-07T03:23:56;47799.72;;;-141.97;47.32
7018;BME280;3549;42.162;24.726;2023-04-07T03:26:21;47669.00;;;-141.97;47.19
7018;BME280;3549;42.162;24.726;2023-04-07T03:28:47;47747.81;;;-141.97;47.28
7018;BME280;3549;42.162;24.726;2023-04-07T03:31:12;47638.25;;;-141.97;47.13
7018;BME280;3549;42.162;24.726;2023-04-07T03:33:37;47797.78;;;-141.97;47.08
7018;BME280;3549;42.162;24.726;2023-04-07T03:36:03;47788.19;;;-141.97;46.97
7018;BME280;3549;42.162;24.726;2023-04-07T03:38:29;47743.97;;;-141.97;47.11
7018;BME280;3549;42.162;24.726;2023-04-07T03:40:54;47720.91;;;-141.97;46.72
7018;BME280;3549;42.162;24.726;2023-04-07T03:43:20;47722.81;;;-141.97;46.76
7018;BME280;3549;42.162;24.726;2023-04-07T03:45:46;47611.34;;;-141.97;46.47
7018;BME280;3549;42.162;24.726;2023-04-07T03:48:11;47782.41;;;-141.97;46.67
7018;BME280;3549;42.162;24.726;2023-04-07T03:50:39;47718.97;;;-141.97;46.74
7018;BME280;3549;42.162;24.726;2023-04-07T03:53:06;47680.53;;;-141.97;46.94
7018;BME280;3549;42.162;24.726;2023-04-07T03:55:32;47692.06;;;-141.97;46.97
7018;BME280;3549;42.162;24.726;2023-04-07T03:57:57;47692.06;;;-141.97;47.28
7018;BME280;3549;42.162;24.726;2023-04-07T04:00:23;47626.72;;;-141.97;47.21
7018;BME280;3549;42.162;24.726;2023-04-07T04:02:48;47772.78;;;-141.97;47.43
7018;BME280;3549;42.162;24.726;2023-04-07T04:05:14;47703.59;;;-141.97;47.60
7018;BME280;3549;42.162;24.726;2023-04-07T04:07:39;47697.84;;;-141.97;47.56
7018;BME280;3549;42.162;24.726;2023-04-07T04:10:05;47653.63;;;-141.97;47.78
7018;BME280;3549;42.162;24.726;2023-04-07T04:12:31;47745.88;;;-141.97;47.22
7018;BME280;3549;42.162;24.726;2023-04-07T04:14:56;47647.84;;;-141.97;47.74
7018;BME280;3549;42.162;24.726;2023-04-07T04:17:22;47770.88;;;-141.97;47.60
7018;BME280;3549;42.162;24.726;2023-04-07T04:19:47;47595.97;;;-141.97;47.31
7018;BME280;3549;42.162;24.726;2023-04-07T04:22:13;47672.84;;;-141.97;47.37
7018;BME280;3549;42.162;24.726;2023-04-07T04:24:38;47549.84;;;-141.97;47.24
7018;BME280;3549;42.162;24.726;2023-04-07T04:27:05;47770.88;;;-141.97;47.71
7018;BME280;3549;42.162;24.726;2023-04-07T04:29:33;47651.69;;;-141.97;47.24
7018;BME280;3549;42.162;24.726;2023-04-07T04:31:59;47686.31;;;-141.97;47.49
7018;BME280;3549;42.162;24.726;2023-04-07T04:34:24;47642.09;;;-141.97;47.92
7018;BME280;3549;42.162;24.726;2023-04-07T04:36:50;47730.50;;;-141.97;48.01
7018;BME280;3549;42.162;24.726;2023-04-07T04:39:15;47661.31;;;-141.97;47.93
7018;BME280;3549;42.162;24.726;2023-04-07T04:41:41;47692.06;;;-141.97;48.11
7018;BME280;3549;42.162;24.726;2023-04-07T04:44:06;47730.50;;;-141.97;48.35
7018;BME280;3549;42.162;24.726;2023-04-07T04:46:31;47684.38;;;-141.97;48.23
7018;BME280;3549;42.162;24.726;2023-04-07T04:48:57;47742.03;;;-141.97;48.69
7018;BME280;3549;42.162;24.726;2023-04-07T04:51:22;47663.22;;;-141.97;48.81
7018;BME280;3549;42.162;24.726;2023-04-07T04:53:48;47799.72;;;-141.97;49.22
7018;BME280;3549;42.162;24.726;2023-04-07T04:56:13;47684.38;;;-141.97;49.28
7018;BME280;3549;42.162;24.726;2023-04-07T04:58:39;47730.50;;;-141.97;49.25
7018;BME280;3549;42.162;24.726;2023-04-07T05:01:06;47803.56;;;-141.97;49.07
7018;BME280;3549;42.162;24.726;2023-04-07T05:03:32;47676.69;;;-141.97;49.40
7018;BME280;3549;42.162;24.726;2023-04-07T05:05:58;47638.25;;;-141.97;49.72
7018;BME280;3549;42.162;24.726;2023-04-07T05:08:23;47740.13;;;-141.97;49.41
7018;BME280;3549;42.162;24.726;2023-04-07T05:10:48;47713.22;;;-141.97;48.93
7018;BME280;3549;42.162;24.726;2023-04-07T05:13:14;47676.69;;;-141.97;48.96
7018;BME280;3549;42.162;24.726;2023-04-07T05:15:46;47757.41;;;-141.97;48.67
7018;BME280;3549;42.162;24.726;2023-04-07T05:18:11;47653.63;;;-141.97;47.08
7018;BME280;3549;42.162;24.726;2023-04-07T05:20:37;47826.63;;;-141.97;47.12
7018;BME280;3549;42.162;24.726;2023-04-07T05:23:05;47670.91;;;-141.97;46.56
7018;BME280;3549;42.162;24.726;2023-04-07T05:25:31;47611.34;;;-141.97;46.36
7018;BME280;3549;42.162;24.726;2023-04-07T05:27:57;47753.56;;;-141.97;45.87
7018;BME280;3549;42.162;24.726;2023-04-07T05:30:24;47780.47;;;-141.97;46.06
7018;BME280;3549;42.162;24.726;2023-04-07T05:32:49;47817.00;;;-141.97;45.18
7018;BME280;3549;42.162;24.726;2023-04-07T05:35:15;47697.84;;;-141.97;45.39
7018;BME280;3549;42.162;24.726;2023-04-07T05:37:40;47686.31;;;-141.97;45.15
7018;BME280;3549;42.162;24.726;2023-04-07T05:40:06;47815.09;;;-141.97;43.18
7018;BME280;3549;42.162;24.726;2023-04-07T05:42:32;47676.69;;;-141.97;42.71
7018;BME280;3549;42.162;24.726;2023-04-07T05:44:57;47661.31;;;-141.97;41.76
7018;BME280;3549;42.162;24.726;2023-04-07T05:47:23;47713.22;;;-141.97;40.87
7018;BME280;3549;42.162;24.726;2023-04-07T05:49:48;47715.13;;;-141.97;41.36
7018;BME280;3549;42.162;24.726;2023-04-07T05:52:14;47669.00;;;-141.97;41.07
7018;BME280;3549;42.162;24.726;2023-04-07T05:54:39;47665.16;;;-141.97;41.59
7018;BME280;3549;42.162;24.726;2023-04-07T05:57:05;47755.50;;;-141.97;41.69
7018;BME280;3549;42.162;24.726;2023-04-07T05:59:32;47732.44;;;-141.97;41.56
7018;BME280;3549;42.162;24.726;2023-04-07T06:01:57;47692.06;;;-141.97;41.91
7018;BME280;3549;42.162;24.726;2023-04-07T06:04:23;47622.88;;;-141.97;40.02
7018;BME280;3549;42.162;24.726;2023-04-07T06:06:48;47694.00;;;-141.97;40.28
7018;BME280;3549;42.162;24.726;2023-04-07T06:09:13;47661.31;;;-141.97;40.17
7018;BME280;3549;42.162;24.726;2023-04-07T06:11:39;47792.03;;;-141.97;39.90
7018;BME280;3549;42.162;24.726;2023-04-07T06:14:04;47603.66;;;-141.97;39.40
7018;BME280;3549;42.162;24.726;2023-04-07T06:16:30;47644.00;;;-141.97;40.04
7018;BME280;3549;42.162;24.726;2023-04-07T06:18:55;47638.25;;;-141.97;39.68
7018;BME280;3549;42.162;24.726;2023-04-07T06:21:21;47676.69;;;-141.97;40.11
7018;BME280;3549;42.162;24.726;2023-04-07T06:23:46;47572.91;;;-141.97;40.07
7018;BME280;3549;42.162;24.726;2023-04-07T06:26:12;47718.97;;;-141.97;39.41
7018;BME280;3549;42.162;24.726;2023-04-07T06:28:38;47793.94;;;-141.97;39.42
7018;BME280;3549;42.162;24.726;2023-04-07T06:31:03;47720.91;;;-141.97;39.33
7018;BME280;3549;42.162;24.726;2023-04-07T06:33:29;47732.44;;;-141.97;38.93
7018;BME280;3549;42.162;24.726;2023-04-07T06:35:55;47661.31;;;-141.97;39.02
7018;BME280;3549;42.162;24.726;2023-04-07T06:38:21;47615.19;;;-141.97;39.36
7018;BME280;3549;42.162;24.726;2023-04-07T06:40:46;47715.13;;;-141.97;38.41
7018;BME280;3549;42.162;24.726;2023-04-07T06:43:11;47788.19;;;-141.97;37.70
7018;BME280;3549;42.162;24.726;2023-04-07T06:45:37;47813.16;;;-141.97;37.50
7018;BME280;3549;42.162;24.726;2023-04-07T06:48:04;47755.50;;;-141.97;38.33
7018;BME280;3549;42.162;24.726;2023-04-07T06:50:29;47584.44;;;-141.97;36.96
7018;BME280;3549;42.162;24.726;2023-04-07T06:52:55;47626.72;;;-141.97;37.57
7018;BME280;3549;42.162;24.726;2023-04-07T06:55:20;47615.19;;;-141.97;37.75
7018;BME280;3549;42.162;24.726;2023-04-07T06:57:49;47697.84;;;-141.97;37.15
7018;BME280;3549;42.162;24.726;2023-04-07T07:00:18;47805.47;;;-141.97;36.30
7018;BME280;3549;42.162;24.726;2023-04-07T07:02:44;47642.09;;;-141.97;36.67
7018;BME280;3549;42.162;24.726;2023-04-07T07:05:10;47603.66;;;-141.97;36.71
7018;BME280;3549;42.162;24.726;2023-04-07T07:07:36;47703.59;;;-141.97;35.89
7018;BME280;3549;42.162;24.726;2023-04-07T07:10:02;47626.72;;;-141.97;36.24
7018;BME280;3549;42.162;24.726;2023-04-07T07:12:28;47580.59;;;-141.97;36.04
7018;BME280;3549;42.162;24.726;2023-04-07T07:14:53;47767.03;;;-141.97;35.93
7018;BME280;3549;42.162;24.726;2023-04-07T07:17:18;47745.88;;;-141.97;35.76
7018;BME280;3549;42.162;24.726;2023-04-07T07:19:44;47617.09;;;-141.97;36.09
7018;BME280;3549;42.162;24.726;2023-04-07T07:22:09;47768.94;;;-141.97;35.95
7018;BME280;3549;42.162;24.726;2023-04-07T07:24:35;47615.19;;;-141.97;36.05
7018;BME280;3549;42.162;24.726;2023-04-07T07:27:01;47684.38;;;-141.97;35.37
7018;BME280;3549;42.162;24.726;2023-04-07T07:29:27;47590.19;;;-141.97;35.88
7018;BME280;3549;42.162;24.726;2023-04-07T07:31:53;47778.56;;;-141.97;35.74
7018;BME280;3549;42.162;24.726;2023-04-07T07:34:18;47597.88;;;-141.97;36.14
7018;BME280;3549;42.162;24.726;2023-04-07T07:36:43;47588.28;;;-141.97;35.46
7018;BME280;3549;42.162;24.726;2023-04-07T07:39:09;47530.59;;;-141.97;35.83
7018;BME280;3549;42.162;24.726;2023-04-07T07:41:35;47684.38;;;-141.97;35.54
7018;BME280;3549;42.162;24.726;2023-04-07T07:47:00;47711.28;;;-141.97;35.29
7018;BME280;3549;42.162;24.726;2023-04-07T07:49:25;47790.09;;;-141.97;35.74
7018;BME280;3549;42.162;24.726;2023-04-07T07:51:51;47584.44;;;-141.97;35.05
7018;BME280;3549;42.162;24.726;2023-04-07T07:54:17;47792.03;;;-141.97;35.71
7018;BME280;3549;42.162;24.726;2023-04-07T07:56:42;47661.31;;;-141.97;35.35
7018;BME280;3549;42.162;24.726;2023-04-07T07:59:08;47711.28;;;-141.97;35.11
7018;BME280;3549;42.162;24.726;2023-04-07T08:01:33;47611.34;;;-141.97;34.84
7018;BME280;3549;42.162;24.726;2023-04-07T08:03:58;47607.50;;;-141.97;34.62
7018;BME280;3549;42.162;24.726;2023-04-07T08:06:24;47624.78;;;-141.97;34.85
7018;BME280;3549;42.162;24.726;2023-04-07T08:08:51;47607.50;;;-141.97;34.04
7018;BME280;3549;42.162;24.726;2023-04-07T08:11:16;47699.75;;;-141.97;33.79
7018;BME280;3549;42.162;24.726;2023-04-07T08:13:42;47674.78;;;-141.97;34.25
7018;BME280;3549;42.162;24.726;2023-04-07T08:16:10;47672.84;;;-141.97;33.78
7018;BME280;3549;42.162;24.726;2023-04-07T08:18:35;47626.72;;;-141.97;32.77
7018;BME280;3549;42.162;24.726;2023-04-07T08:21:03;47619.03;;;-141.97;33.37
7018;BME280;3549;42.162;24.726;2023-04-07T08:23:29;47572.91;;;-141.97;33.07
7018;BME280;3549;42.162;24.726;2023-04-07T08:25:54;47692.06;;;-141.97;32.92
7018;BME280;3549;42.162;24.726;2023-04-07T08:28:20;47678.63;;;-141.97;31.98
7018;BME280;3549;42.162;24.726;2023-04-07T08:30:47;47576.75;;;-141.97;32.28
7018;BME280;3549;42.162;24.726;2023-04-07T08:33:12;47630.56;;;-141.97;31.67
7018;BME280;3549;42.162;24.726;2023-04-07T08:35:38;47561.38;;;-141.97;30.77
7018;BME280;3549;42.162;24.726;2023-04-07T08:38:03;47667.06;;;-141.97;31.15
7018;BME280;3549;42.162;24.726;2023-04-07T08:40:30;47494.09;;;-141.97;32.02
7018;BME280;3549;42.162;24.726;2023-04-07T08:42:59;47653.63;;;-141.97;31.79
7018;BME280;3549;42.162;24.726;2023-04-07T08:45:25;47755.50;;;-141.97;31.54
7018;BME280;3549;42.162;24.726;2023-04-07T08:47:54;47601.72;;;-141.97;31.15
7018;BME280;3549;42.162;24.726;2023-04-07T08:50:21;47665.16;;;-141.97;31.99
7018;BME280;3549;42.162;24.726;2023-04-07T08:52:54;47546.00;;;-141.97;31.80
7018;BME280;3549;42.162;24.726;2023-04-07T08:55:20;47778.56;;;-141.97;31.01
7018;BME280;3549;42.162;24.726;2023-04-07T08:57:46;47620.94;;;-141.97;30.51
7018;BME280;3549;42.162;24.726;2023-04-07T09:00:12;47559.44;;;-141.97;29.93
7018;BME280;3549;42.162;24.726;2023-04-07T09:02:40;47603.66;;;-141.97;30.32
7018;BME280;3549;42.162;24.726;2023-04-07T09:05:09;47567.13;;;-141.97;30.37
7018;BME280;3549;42.162;24.726;2023-04-07T09:07:36;47695.91;;;-141.97;30.05
7018;BME280;3549;42.162;24.726;2023-04-07T09:10:02;47676.69;;;-141.97;30.62
7018;BME280;3549;42.162;24.726;2023-04-07T09:12:28;47682.47;;;-141.97;30.21
7018;BME280;3549;42.162;24.726;2023-04-07T09:14:54;47699.75;;;-141.97;30.30
7018;BME280;3549;42.162;24.726;2023-04-07T09:17:20;47680.53;;;-141.97;30.52
7018;BME280;3549;42.162;24.726;2023-04-07T09:19:46;47622.88;;;-141.97;30.75
7018;BME280;3549;42.162;24.726;2023-04-07T09:22:12;47572.91;;;-141.97;31.02
7018;BME280;3549;42.162;24.726;2023-04-07T09:24:38;47578.66;;;-141.97;30.45
7018;BME280;3549;42.162;24.726;2023-04-07T09:29:37;47636.31;;;-141.97;30.51
7018;BME280;3549;42.162;24.726;2023-04-07T09:32:03;47703.59;;;-141.97;29.92
7018;BME280;3549;42.162;24.726;2023-04-07T09:34:36;47551.75;;;-141.97;30.86
7018;BME280;3549;42.162;24.726;2023-04-07T09:37:04;47676.69;;;-141.97;30.75
7018;BME280;3549;42.162;24.726;2023-04-07T09:39:29;47801.63;;;-141.97;31.22
7018;BME280;3549;42.162;24.726;2023-04-07T09:41:56;47745.88;;;-141.97;30.92
7018;BME280;3549;42.162;24.726;2023-04-07T09:44:23;47665.16;;;-141.97;30.69
7018;BME280;3549;42.162;24.726;2023-04-07T09:46:56;47549.84;;;-141.97;30.34
7018;BME280;3549;42.162;24.726;2023-04-07T09:49:23;47669.00;;;-141.97;30.29
7018;BME280;3549;42.162;24.726;2023-04-07T09:54:33;47653.63;;;-141.97;30.72
7018;BME280;3549;42.162;24.726;2023-04-07T09:57:00;47763.19;;;-141.97;30.40
7018;BME280;3549;42.162;24.726;2023-04-07T09:59:27;47653.63;;;-141.97;30.46
7018;BME280;3549;42.162;24.726;2023-04-07T10:01:53;47807.41;;;-141.97;30.53
7018;BME280;3549;42.162;24.726;2023-04-07T10:04:19;47828.53;;;-141.97;30.22
7018;BME280;3549;42.162;24.726;2023-04-07T10:06:45;47613.25;;;-141.97;30.11
7018;BME280;3549;42.162;24.726;2023-04-07T10:09:12;47786.25;;;-141.97;30.63
7018;BME280;3549;42.162;24.726;2023-04-07T10:11:39;47515.22;;;-141.97;30.25
7018;BME280;3549;42.162;24.726;2023-04-07T10:14:08;47620.94;;;-141.97;30.00
7018;BME280;3549;42.162;24.726;2023-04-07T10:16:34;47553.69;;;-141.97;28.92
7018;BME280;3549;42.162;24.726;2023-04-07T10:19:00;47720.91;;;-141.97;29.75
7018;BME280;3549;42.162;24.726;2023-04-07T10:21:27;47772.78;;;-141.97;30.61
7018;BME280;3549;42.162;24.726;2023-04-07T10:24:00;47699.75;;;-141.97;30.16
7018;BME280;3549;42.162;24.726;2023-04-07T10:26:31;47488.31;;;-141.97;30.05
7018;BME280;3549;42.162;24.726;2023-04-07T10:29:09;47726.66;;;-141.97;29.74
7018;BME280;3549;42.162;24.726;2023-04-07T10:31:36;47665.16;;;-141.97;30.03
7018;BME280;3549;42.162;24.726;2023-04-07T10:34:02;47494.09;;;-141.97;30.03
7018;BME280;3549;42.162;24.726;2023-04-07T10:36:28;47584.44;;;-141.97;29.93
7018;BME280;3549;42.162;24.726;2023-04-07T10:41:33;47661.31;;;-141.97;29.41
7018;BME280;3549;42.162;24.726;2023-04-07T10:44:00;47607.50;;;-141.97;29.60
7018;BME280;3549;42.162;24.726;2023-04-07T10:49:13;47672.84;;;-141.97;28.82
7018;BME280;3549;42.162;24.726;2023-04-07T10:51:39;47653.63;;;-141.97;28.97
7018;BME280;3549;42.162;24.726;2023-04-07T10:54:20;47674.78;;;-141.97;28.93
7018;BME280;3549;42.162;24.726;2023-04-07T10:57:16;47680.53;;;-141.97;28.75
7018;BME280;3549;42.162;24.726;2023-04-07T11:02:37;47772.78;;;-141.97;29.64
7018;BME280;3549;42.162;24.726;2023-04-07T11:05:03;47613.25;;;-141.97;30.18
7018;BME280;3549;42.162;24.726;2023-04-07T11:07:49;47494.09;;;-141.97;29.61
7018;BME280;3549;42.162;24.726;2023-04-07T11:10:15;47630.56;;;-141.97;29.69
7018;BME280;3549;42.162;24.726;2023-04-07T11:12:43;47663.22;;;-141.97;29.94
7018;BME280;3549;42.162;24.726;2023-04-07T11:15:21;47682.47;;;-141.97;30.28
7018;BME280;3549;42.162;24.726;2023-04-07T11:18:09;47667.06;;;-141.97;30.33
7018;BME280;3549;42.162;24.726;2023-04-07T11:20:55;47672.84;;;-141.97;29.64
7018;BME280;3549;42.162;24.726;2023-04-07T11:23:23;47611.34;;;-141.97;30.39
7018;BME280;3549;42.162;24.726;2023-04-07T11:25:51;47665.16;;;-141.97;30.49
7018;BME280;3549;42.162;24.726;2023-04-07T11:28:18;47626.72;;;-141.97;30.28
7018;BME280;3549;42.162;24.726;2023-04-07T11:30:53;47782.41;;;-141.97;29.86
7018;BME280;3549;42.162;24.726;2023-04-07T11:33:25;47680.53;;;-141.97;29.95
7018;BME280;3549;42.162;24.726;2023-04-07T11:35:56;47624.78;;;-141.97;29.37
7018;BME280;3549;42.162;24.726;2023-04-07T11:38:24;47649.78;;;-141.97;29.35
7018;BME280;3549;42.162;24.726;2023-04-07T11:40:51;47636.31;;;-141.97;29.10
7018;BME280;3549;42.162;24.726;2023-04-07T11:43:22;47632.47;;;-141.97;29.24
7018;BME280;3549;42.162;24.726;2023-04-07T11:46:05;47657.47;;;-141.97;29.16
7018;BME280;3549;42.162;24.726;2023-04-07T11:48:32;47626.72;;;-141.97;27.99
7018;BME280;3549;42.162;24.726;2023-04-07T11:50:59;47767.03;;;-141.97;27.47
7018;BME280;3549;42.162;24.726;2023-04-07T11:53:30;47607.50;;;-141.97;27.21
7018;BME280;3549;42.162;24.726;2023-04-07T11:56:05;47617.09;;;-141.97;26.85
7018;BME280;3549;42.162;24.726;2023-04-07T11:58:32;47619.03;;;-141.97;26.55
7018;BME280;3549;42.162;24.726;2023-04-07T12:00:59;47572.91;;;-141.97;25.63
7018;BME280;3549;42.162;24.726;2023-04-07T12:03:29;47490.25;;;-141.97;25.82
7018;BME280;3549;42.162;24.726;2023-04-07T12:05:54;47753.56;;;-141.97;26.32
7018;BME280;3549;42.162;24.726;2023-04-07T12:08:20;47561.38;;;-141.97;26.67
7018;BME280;3549;42.162;24.726;2023-04-07T12:10:46;47497.94;;;-141.97;26.67
7018;BME280;3549;42.162;24.726;2023-04-07T12:13:12;47597.88;;;-141.97;26.10
7018;BME280;3549;42.162;24.726;2023-04-07T12:15:38;47655.53;;;-141.97;26.18
7018;BME280;3549;42.162;24.726;2023-04-07T12:18:04;47617.09;;;-141.97;26.29
7018;BME280;3549;42.162;24.726;2023-04-07T12:20:30;47482.56;;;-141.97;26.50
7018;BME280;3549;42.162;24.726;2023-04-07T12:22:55;47515.22;;;-141.97;25.75
7018;BME280;3549;42.162;24.726;2023-04-07T12:25:21;47542.16;;;-141.97;25.66
7018;BME280;3549;42.162;24.726;2023-04-07T12:27:46;47532.53;;;-141.97;25.85
7018;BME280;3549;42.162;24.726;2023-04-07T12:30:12;47572.91;;;-141.97;25.39
7018;BME280;3549;42.162;24.726;2023-04-07T12:32:38;47557.53;;;-141.97;25.18
7018;BME280;3549;42.162;24.726;2023-04-07T12:35:04;47740.13;;;-141.97;26.45
7018;BME280;3549;42.162;24.726;2023-04-07T12:37:30;47703.59;;;-141.97;25.71
7018;BME280;3549;42.162;24.726;2023-04-07T12:39:56;47486.41;;;-141.97;25.11
7018;BME280;3549;42.162;24.726;2023-04-07T12:42:22;47407.59;;;-141.97;24.67
7018;BME280;3549;42.162;24.726;2023-04-07T12:44:48;47565.22;;;-141.97;24.44
7018;BME280;3549;42.162;24.726;2023-04-07T12:47:13;47496.00;;;-141.97;24.85
7018;BME280;3549;42.162;24.726;2023-04-07T12:49:39;47511.38;;;-141.97;24.89
7018;BME280;3549;42.162;24.726;2023-04-07T12:52:04;47461.41;;;-141.97;25.54
7018;BME280;3549;42.162;24.726;2023-04-07T12:54:31;47730.50;;;-141.97;25.37
7018;BME280;3549;42.162;24.726;2023-04-07T12:56:56;47549.84;;;-141.97;25.13
7018;BME280;3549;42.162;24.726;2023-04-07T12:59:22;47703.59;;;-141.97;25.75
7018;BME280;3549;42.162;24.726;2023-04-07T13:01:48;47534.44;;;-141.97;25.32
7018;BME280;3549;42.162;24.726;2023-04-07T13:04:13;47718.97;;;-141.97;25.59
7018;BME280;3549;42.162;24.726;2023-04-07T13:06:39;47421.06;;;-141.97;26.08
7018;BME280;3549;42.162;24.726;2023-04-07T13:09:04;47551.75;;;-141.97;26.10